createdAt,value
2023-05-10T07:20:29.252Z,96.13
2023-05-10T07:22:38.501Z,95.94
2023-05-10T07:25:02.248Z,94.27
2023-05-10T07:26:04.109Z,93.51
2023-05-10T07:27:05.695Z,95.70
2023-05-10T07:29:24.886Z,92.51
2023-05-10T07:30:26.296Z,93.77
2023-05-10T07:31:28.047Z,92.97
2023-05-10T07:32:29.650Z,93.02
2023-05-10T07:34:34.630Z,91.25
2023-05-10T07:35:36.754Z,91.41
2023-05-10T07:36:38.196Z,90.13
2023-05-10T07:37:39.543Z,90.55
2023-05-10T07:38:41.263Z,90.97
2023-05-10T07:39:42.619Z,91.42
2023-05-10T07:40:44.110Z,88.46
2023-05-10T07:41:45.519Z,89.39
2023-05-10T07:42:46.949Z,90.37
2023-05-10T07:43:48.307Z,90.76
2023-05-10T07:44:49.707Z,88.93
2023-05-10T07:45:51.871Z,90.05
2023-05-10T07:46:54.173Z,86.71
2023-05-10T07:47:55.568Z,88.19
2023-05-10T07:48:57.015Z,88.22
2023-05-10T07:49:58.501Z,86.36
2023-05-10T07:50:59.915Z,88.72
2023-05-10T07:52:01.533Z,87.10
2023-05-10T07:53:02.877Z,86.42
2023-05-10T07:54:04.366Z,85.01
2023-05-10T07:55:06.406Z,86.57
2023-05-10T07:56:30.988Z,87.46
2023-05-10T07:57:32.397Z,87.14
2023-05-10T07:58:33.940Z,87.09
2023-05-10T07:59:35.417Z,85.40
2023-05-10T08:00:40.344Z,86.16
2023-05-10T08:01:43.058Z,87.39
2023-05-10T08:02:44.681Z,86.29
2023-05-10T08:03:46.286Z,86.87
2023-05-10T08:04:47.775Z,85.76
2023-05-10T08:05:49.261Z,84.01
2023-05-10T08:06:50.791Z,85.27
2023-05-10T08:07:52.162Z,87.03
2023-05-10T08:08:54.971Z,85.06
2023-05-10T08:09:56.475Z,85.67
2023-05-10T08:10:57.890Z,85.20
2023-05-10T08:22:05.380Z,87.25
2023-05-10T08:23:07.144Z,86.36
2023-05-10T08:24:08.556Z,83.30
2023-05-10T08:25:10.037Z,82.88
2023-05-10T08:26:11.892Z,83.42
2023-05-10T08:27:13.656Z,82.06
2023-05-10T08:28:15.104Z,82.82
2023-05-10T08:29:17.081Z,81.63
2023-05-10T08:30:18.583Z,80.77
2023-05-10T08:31:20.418Z,80.74
2023-05-10T08:32:22.082Z,79.26
2023-05-10T08:33:23.620Z,81.55
2023-05-10T08:34:25.314Z,81.89
2023-05-10T08:35:26.923Z,81.35
2023-05-10T08:36:28.646Z,80.47
2023-05-10T08:37:31.136Z,79.17
2023-05-10T08:38:32.527Z,79.74
2023-05-10T08:39:36.805Z,78.95
2023-05-10T08:40:38.748Z,80.58
2023-05-10T08:41:41.360Z,79.16
2023-05-10T08:42:48.910Z,79.31
2023-05-10T08:43:51.963Z,80.14
2023-05-10T08:44:54.774Z,80.26
2023-05-10T08:45:59.465Z,79.86
2023-05-10T08:47:05.810Z,78.73
2023-05-10T08:48:09.148Z,79.13
2023-05-10T08:49:14.111Z,80.64
2023-05-10T08:50:16.446Z,80.64
2023-05-10T08:51:27.709Z,78.51
2023-05-10T08:52:30.990Z,78.47
2023-05-10T08:53:36.337Z,78.37
2023-05-10T08:54:39.042Z,79.08
2023-05-10T08:55:42.967Z,79.24
2023-05-10T08:56:44.364Z,79.63
2023-05-10T08:57:46.362Z,79.66
2023-05-10T08:58:48.173Z,78.30
2023-05-10T08:59:49.575Z,79.21
2023-05-10T09:00:54.648Z,78.54
2023-05-10T09:01:58.762Z,78.52
2023-05-10T09:03:01.230Z,78.55
2023-05-10T09:04:03.864Z,76.45
2023-05-10T09:05:06.355Z,78.10
2023-05-10T09:06:08.810Z,76.44
2023-05-10T09:07:11.842Z,78.46
2023-05-10T09:08:16.780Z,79.36
2023-05-10T09:09:19.367Z,77.75
2023-05-10T09:10:21.625Z,76.09
2023-05-10T09:11:23.416Z,77.87
2023-05-10T09:12:24.966Z,77.43
2023-05-10T09:13:27.093Z,76.61
2023-05-10T09:14:28.707Z,77.74
2023-05-10T09:15:30.106Z,76.68
2023-05-10T09:16:31.648Z,76.98
2023-05-10T09:17:33.076Z,76.59
2023-05-10T09:18:34.589Z,76.58
2023-05-10T09:19:36.035Z,76.53
2023-05-10T09:20:37.501Z,76.72
2023-05-10T09:21:39.319Z,76.83
2023-05-10T09:22:41.275Z,76.54
2023-05-10T09:23:48.680Z,76.22
2023-05-10T09:25:14.678Z,76.85
2023-05-10T09:26:16.959Z,77.09
2023-05-10T09:27:27.171Z,77.52
2023-05-10T09:28:32.078Z,77.83
2023-05-10T09:29:44.060Z,78.36
2023-05-10T09:30:54.658Z,77.19
2023-05-10T09:31:56.210Z,77.29
2023-05-10T09:32:59.375Z,76.28
2023-05-10T09:34:00.777Z,77.01
2023-05-10T09:35:07.998Z,76.29
2023-05-10T09:36:09.681Z,76.62
2023-05-10T09:37:11.641Z,76.35
2023-05-10T09:38:13.096Z,76.28
2023-05-10T09:39:14.463Z,75.51
2023-05-10T09:40:20.807Z,75.95
2023-05-10T09:41:24.225Z,74.29
2023-05-10T09:42:25.724Z,74.61
2023-05-10T09:43:28.309Z,72.96
2023-05-10T09:44:29.825Z,74.77
2023-05-10T09:45:34.165Z,74.80
2023-05-10T09:46:37.835Z,76.22
2023-05-10T09:47:39.553Z,74.93
2023-05-10T09:48:46.949Z,74.54
2023-05-10T09:49:52.270Z,75.75
2023-05-10T09:50:59.857Z,74.23
2023-05-10T09:52:08.872Z,73.39
2023-05-10T09:53:10.334Z,71.79
2023-05-10T09:54:13.187Z,71.26
2023-05-10T09:55:14.913Z,72.71
2023-05-10T09:56:34.541Z,72.68
2023-05-10T09:57:36.102Z,71.54
2023-05-10T09:58:41.397Z,72.45
2023-05-10T09:59:44.147Z,75.17
2023-05-10T10:00:48.588Z,75.91
2023-05-10T10:01:52.134Z,75.99
2023-05-10T10:03:01.055Z,76.18
2023-05-10T10:04:05.066Z,76.50
2023-05-10T10:05:08.188Z,77.24
2023-05-10T10:06:18.700Z,77.32
2023-05-10T10:07:26.447Z,77.75
2023-05-10T10:08:28.030Z,76.34
2023-05-10T10:09:29.747Z,77.04
2023-05-10T10:10:33.034Z,77.46
2023-05-10T10:11:38.818Z,77.52
2023-05-10T10:12:41.748Z,77.79
2023-05-10T10:13:43.703Z,77.19
2023-05-10T10:14:46.885Z,76.23
2023-05-10T10:15:51.978Z,76.23
2023-05-10T10:17:06.476Z,77.87
2023-05-10T10:18:13.731Z,76.60
2023-05-10T10:19:16.293Z,77.70
2023-05-10T10:20:19.275Z,78.46
2023-05-10T10:23:26.742Z,82.47
2023-05-10T10:26:12.531Z,78.93
2023-05-10T10:29:06.534Z,80.93
2023-05-10T10:32:10.328Z,77.28
2023-05-10T10:33:33.757Z,77.63
2023-05-10T10:34:35.849Z,76.83
2023-05-10T10:35:37.746Z,76.43
2023-05-10T10:36:45.878Z,75.43
2023-05-10T10:37:48.965Z,76.20
2023-05-10T10:39:00.385Z,75.41
2023-05-10T10:40:01.831Z,75.83
2023-05-10T10:41:08.930Z,75.60
2023-05-10T10:42:10.598Z,75.52
2023-05-10T10:43:25.579Z,74.83
2023-05-10T10:44:39.984Z,74.51
2023-05-10T10:45:42.355Z,74.50
2023-05-10T10:47:12.843Z,75.29
2023-05-10T10:48:22.554Z,74.09
2023-05-10T10:49:24.081Z,73.43
2023-05-10T10:50:25.452Z,74.74
2023-05-10T10:51:29.980Z,74.15
2023-05-10T10:52:46.961Z,74.81
2023-05-10T10:53:49.269Z,74.71
2023-05-10T10:54:52.374Z,74.41
2023-05-10T10:56:10.571Z,75.08
2023-05-10T10:57:15.746Z,75.95
2023-05-10T10:58:33.138Z,75.19
2023-05-10T10:59:34.504Z,74.89
2023-05-10T11:00:41.853Z,75.69
2023-05-10T11:02:54.830Z,74.45
2023-05-10T11:04:16.634Z,73.81
2023-05-10T11:06:34.771Z,74.43
2023-05-10T11:07:36.239Z,73.78
2023-05-10T11:08:47.010Z,74.10
2023-05-10T11:09:48.754Z,74.23
2023-05-10T11:11:09.573Z,74.78
2023-05-10T11:12:10.959Z,75.13
2023-05-10T11:13:12.367Z,75.71
2023-05-10T11:14:14.219Z,75.92
2023-05-10T11:15:15.900Z,77.65
2023-05-10T11:16:24.507Z,77.93
2023-05-10T11:17:30.130Z,80.67
2023-05-10T11:18:31.691Z,79.97
2023-05-10T11:19:33.222Z,77.66
2023-05-10T11:20:40.998Z,76.93
2023-05-10T11:21:51.192Z,77.69
2023-05-10T11:22:53.933Z,77.95
2023-05-10T11:24:00.518Z,77.81
2023-05-10T11:25:02.046Z,76.96
2023-05-10T11:26:03.396Z,77.05
2023-05-10T11:27:04.995Z,75.28
2023-05-10T11:28:07.173Z,75.21
2023-05-10T11:29:08.701Z,75.99
2023-05-10T11:30:13.645Z,76.20
2023-05-10T11:31:16.736Z,77.23
2023-05-10T11:32:18.345Z,75.85
2023-05-10T11:33:20.792Z,75.59
2023-05-10T11:34:34.624Z,75.45
2023-05-10T11:35:43.214Z,74.45
2023-05-10T11:36:52.917Z,75.90
2023-05-10T11:37:54.482Z,74.44
2023-05-10T11:38:57.239Z,73.40
2023-05-10T11:39:58.652Z,73.37
2023-05-10T11:41:00.302Z,72.98
2023-05-10T11:42:01.928Z,72.68
2023-05-10T11:43:04.120Z,71.42
2023-05-10T11:44:05.638Z,71.43
2023-05-10T11:45:08.042Z,72.01
2023-05-10T11:46:12.153Z,71.31
2023-05-10T11:47:13.661Z,71.40
2023-05-10T11:48:15.327Z,70.55
2023-05-10T11:49:16.749Z,70.17
2023-05-10T11:50:19.274Z,70.37
2023-05-10T11:51:22.399Z,69.39
2023-05-10T11:52:24.899Z,68.57
2023-05-10T11:53:27.999Z,69.66
2023-05-10T11:54:29.404Z,70.67
2023-05-10T11:55:34.397Z,68.41
2023-05-10T11:56:36.061Z,69.05
2023-05-10T11:57:39.457Z,69.67
2023-05-10T11:58:41.006Z,67.35
2023-05-10T11:59:43.299Z,67.94
2023-05-10T12:00:45.374Z,66.79
2023-05-10T12:01:47.009Z,68.17
2023-05-10T12:02:49.544Z,68.09
2023-05-10T12:03:52.506Z,68.73
2023-05-10T12:04:55.901Z,68.35
2023-05-10T12:05:58.445Z,68.40
2023-05-10T12:07:00.012Z,68.62
2023-05-10T12:08:21.070Z,70.26
2023-05-10T12:09:35.385Z,69.37
2023-05-10T12:10:41.622Z,68.58
2023-05-10T12:11:44.524Z,68.46
2023-05-10T12:12:51.046Z,68.01
2023-05-10T12:13:52.700Z,69.28
2023-05-10T12:14:54.120Z,69.62
2023-05-10T12:15:58.749Z,69.51
2023-05-10T12:17:00.257Z,69.29
2023-05-10T12:18:02.269Z,69.70
2023-05-10T12:19:03.869Z,69.67
2023-05-10T12:20:22.829Z,69.28
2023-05-10T12:21:24.588Z,68.60
2023-05-10T12:22:26.044Z,68.15
2023-05-10T12:23:27.546Z,68.83
2023-05-10T12:24:28.960Z,69.57
2023-05-10T12:25:32.724Z,69.64
2023-05-10T12:26:36.466Z,69.01
2023-05-10T12:27:38.126Z,68.73
2023-05-10T12:28:40.457Z,69.28
2023-05-10T12:29:45.444Z,69.50
2023-05-10T12:30:50.005Z,68.27
2023-05-10T12:31:59.428Z,68.05
2023-05-10T12:33:04.307Z,68.71
2023-05-10T12:34:05.757Z,68.63
2023-05-10T12:35:08.280Z,67.76
2023-05-10T12:36:11.409Z,67.88
2023-05-10T12:37:13.296Z,67.92
2023-05-10T12:38:34.700Z,68.34
2023-05-10T12:39:44.134Z,67.18
2023-05-10T12:40:45.577Z,67.05
2023-05-10T12:41:47.115Z,67.78
2023-05-10T12:42:49.653Z,68.12
2023-05-10T12:43:52.922Z,68.57
2023-05-10T12:44:57.947Z,67.92
2023-05-10T12:46:00.201Z,68.66
2023-05-10T12:47:01.581Z,67.97
2023-05-10T12:48:03.390Z,68.59
2023-05-10T12:49:08.964Z,68.51
2023-05-10T12:50:11.962Z,67.91
2023-05-10T12:51:16.683Z,68.59
2023-05-10T12:52:18.480Z,68.79
2023-05-10T12:53:20.162Z,68.05
2023-05-10T12:54:21.707Z,67.86
2023-05-10T12:55:23.265Z,67.56
2023-05-10T12:56:24.846Z,66.84
2023-05-10T12:57:31.900Z,67.25
2023-05-10T12:58:35.989Z,65.85
2023-05-10T12:59:38.369Z,66.07
2023-05-10T13:00:39.950Z,65.94
2023-05-10T13:01:41.706Z,65.45
2023-05-10T13:02:44.405Z,65.26
2023-05-10T13:03:46.412Z,64.16
2023-05-10T13:04:50.920Z,64.94
2023-05-10T13:05:52.981Z,64.05
2023-05-10T13:06:56.455Z,64.58
2023-05-10T13:07:57.804Z,65.33
2023-05-10T13:08:59.180Z,64.82
2023-05-10T13:10:00.600Z,64.28
2023-05-10T13:11:03.542Z,64.86
2023-05-10T13:12:09.433Z,65.03
2023-05-10T13:13:11.627Z,64.59
2023-05-10T13:14:14.333Z,63.86
2023-05-10T13:15:15.865Z,64.58
2023-05-10T13:16:17.312Z,64.53
2023-05-10T13:17:18.759Z,64.53
2023-05-10T13:18:20.452Z,64.67
2023-05-10T13:19:21.871Z,64.91
2023-05-10T13:20:23.290Z,64.41
2023-05-10T13:21:25.982Z,64.31
2023-05-10T13:22:39.311Z,63.80
2023-05-10T13:23:41.800Z,62.19
2023-05-10T13:24:43.136Z,62.80
2023-05-10T13:25:44.504Z,62.37
2023-05-10T13:26:45.937Z,61.83
2023-05-10T13:27:47.397Z,62.40
2023-05-10T13:28:49.839Z,63.67
2023-05-10T13:29:51.451Z,62.43
2023-05-10T13:30:52.847Z,62.95
2023-05-10T13:31:54.459Z,63.52
2023-05-10T13:32:56.115Z,63.67
2023-05-10T13:33:57.558Z,63.11
2023-05-10T13:34:58.965Z,63.37
2023-05-10T13:36:00.316Z,62.91
2023-05-10T13:37:01.872Z,63.32
2023-05-10T13:38:03.413Z,62.69
2023-05-10T13:39:06.197Z,62.70
2023-05-10T13:40:08.158Z,62.95
2023-05-10T13:41:12.705Z,63.81
2023-05-10T13:42:14.399Z,63.18
2023-05-10T13:43:16.185Z,62.42
2023-05-10T13:44:17.598Z,62.12
2023-05-10T13:45:19.129Z,63.29
2023-05-10T13:46:20.902Z,63.75
2023-05-10T13:47:23.248Z,63.28
2023-05-10T13:48:24.767Z,63.32
2023-05-10T13:49:26.160Z,64.14
2023-05-10T13:50:27.973Z,64.32
2023-05-10T13:51:29.417Z,65.38
2023-05-10T13:52:30.817Z,64.56
2023-05-10T13:53:32.234Z,64.72
2023-05-10T13:54:35.331Z,64.62
2023-05-10T13:55:36.733Z,63.04
2023-05-10T13:56:38.504Z,64.39
2023-05-10T13:57:39.869Z,65.23
2023-05-10T13:58:42.336Z,64.71
2023-05-10T13:59:43.673Z,64.22
2023-05-10T14:00:45.017Z,64.24
2023-05-10T14:01:46.595Z,64.29
2023-05-10T14:02:48.744Z,63.28
2023-05-10T14:03:50.596Z,62.64
2023-05-10T14:04:52.632Z,63.67
2023-05-10T14:05:54.199Z,62.64
2023-05-10T14:06:55.831Z,63.19
2023-05-10T14:07:58.182Z,62.94
2023-05-10T14:08:59.753Z,63.65
2023-05-10T14:10:01.642Z,63.61
2023-05-10T14:11:03.371Z,64.38
2023-05-10T14:12:05.001Z,62.73
2023-05-10T14:13:07.164Z,63.24
2023-05-10T14:14:08.611Z,62.89
2023-05-10T14:15:12.350Z,64.17
2023-05-10T14:16:15.659Z,63.11
2023-05-10T14:17:17.070Z,64.66
2023-05-10T14:18:18.676Z,64.11
2023-05-10T14:19:20.224Z,63.32
2023-05-10T14:20:21.672Z,63.33
2023-05-10T14:21:23.024Z,62.26
2023-05-10T14:22:24.569Z,62.13
2023-05-10T14:23:26.636Z,62.89
2023-05-10T14:24:28.126Z,62.46
2023-05-10T14:25:29.520Z,62.58
2023-05-10T14:26:31.201Z,63.75
2023-05-10T14:27:33.424Z,63.93
2023-05-10T14:28:34.918Z,63.40
2023-05-10T14:29:36.499Z,61.74
2023-05-10T14:30:37.902Z,62.34
2023-05-10T14:31:41.285Z,62.66
2023-05-10T14:32:42.911Z,62.34
2023-05-10T14:33:44.319Z,62.46
2023-05-10T14:34:45.850Z,63.66
2023-05-10T14:35:47.813Z,63.32
2023-05-10T14:36:49.293Z,63.30
2023-05-10T14:37:51.198Z,63.43
2023-05-10T14:38:52.592Z,63.54
2023-05-10T14:39:54.635Z,61.98
2023-05-10T14:40:56.061Z,61.86
2023-05-10T14:41:57.483Z,60.78
2023-05-10T14:42:58.997Z,61.09
2023-05-10T14:44:00.351Z,60.96
2023-05-10T14:45:01.800Z,61.68
2023-05-10T14:46:03.326Z,61.78
2023-05-10T14:47:04.913Z,62.54
2023-05-10T14:48:06.916Z,61.55
2023-05-10T14:49:08.466Z,62.07
2023-05-10T14:50:10.085Z,61.81
2023-05-10T14:51:11.972Z,62.09
2023-05-10T14:52:13.425Z,61.32
2023-05-10T14:53:15.001Z,60.31
2023-05-10T14:54:16.465Z,60.32
2023-05-10T14:55:18.198Z,60.61
2023-05-10T14:56:19.804Z,60.81
2023-05-10T14:57:21.234Z,61.05
2023-05-10T14:58:22.714Z,60.34
2023-05-10T14:59:24.276Z,61.18
2023-05-10T15:00:26.119Z,61.12
2023-05-10T15:01:28.142Z,61.48
2023-05-10T15:02:31.475Z,60.89
2023-05-10T15:03:33.219Z,60.47
2023-05-10T15:04:34.945Z,60.42
2023-05-10T15:05:38.349Z,60.12
2023-05-10T15:06:39.825Z,60.46
2023-05-10T15:07:41.396Z,60.42
2023-05-10T15:08:42.817Z,61.43
2023-05-10T15:09:44.209Z,61.10
2023-05-10T15:10:45.649Z,61.22
2023-05-10T15:11:47.032Z,60.32
2023-05-10T15:12:48.492Z,60.81
2023-05-10T15:13:49.878Z,60.73
2023-05-10T15:14:51.236Z,60.55
2023-05-10T15:15:52.794Z,60.97
2023-05-10T15:16:54.264Z,60.41
2023-05-10T15:17:55.734Z,60.64
2023-05-10T15:18:57.130Z,60.53
2023-05-10T15:19:58.535Z,61.43
2023-05-10T15:20:59.916Z,60.15
2023-05-10T15:22:01.390Z,60.67
2023-05-10T15:23:02.914Z,60.12
2023-05-10T15:24:04.780Z,59.60
2023-05-10T15:25:06.779Z,60.04
2023-05-10T15:26:08.863Z,60.26
2023-05-10T15:27:10.315Z,59.53
2023-05-10T15:28:11.774Z,60.13
2023-05-10T15:29:20.824Z,61.04
2023-05-10T15:30:22.311Z,60.56
2023-05-10T15:31:23.766Z,60.62
2023-05-10T15:32:25.217Z,60.15
2023-05-10T15:33:28.352Z,60.95
2023-05-10T15:34:30.372Z,60.44
2023-05-10T15:35:34.554Z,60.81
2023-05-10T15:36:35.881Z,61.56
2023-05-10T15:37:38.109Z,62.10
2023-05-10T15:38:39.465Z,61.73
2023-05-10T15:39:40.842Z,60.72
2023-05-10T15:40:42.469Z,60.62
2023-05-10T15:41:43.838Z,60.64
2023-05-10T15:42:45.474Z,60.71
2023-05-10T15:43:46.812Z,59.75
2023-05-10T15:44:51.107Z,59.67
2023-05-10T15:45:52.452Z,60.29
2023-05-10T15:46:53.853Z,60.37
2023-05-10T15:47:55.400Z,61.06
2023-05-10T15:48:58.584Z,60.55
2023-05-10T15:49:59.985Z,60.96
2023-05-10T15:51:01.381Z,61.28
2023-05-10T15:52:03.121Z,61.62
2023-05-10T15:53:04.520Z,61.94
2023-05-10T15:54:08.260Z,60.57
2023-05-10T15:55:13.077Z,61.62
2023-05-10T15:56:15.486Z,61.41
2023-05-10T15:57:17.403Z,61.48
2023-05-10T15:58:19.246Z,61.66
2023-05-10T15:59:21.017Z,61.88
2023-05-10T16:00:22.395Z,62.30
2023-05-10T16:01:23.826Z,61.89
2023-05-10T16:02:25.530Z,61.55
2023-05-10T16:03:27.124Z,60.48
2023-05-10T16:04:28.460Z,60.65
2023-05-10T16:05:32.617Z,61.39
2023-05-10T16:06:37.916Z,62.12
